Saturday, January 20, 2018, 10:12 AM EST
Back to Local

KTHV, York Airport

Location: Spring Grove, PA, United States Lat: 39.917
Local Time: 10:12 AM EST (15:12 GMT) Lon: -76.883
Time Zone: US/Eastern Elev: 478 ft

Show me the last for .
Show Decoded

2018-01-20 09:53 METAR KTHV 201453Z AUTO 25012G23KT 10SM CLR 10/00 A2996 RMK AO2 SLP151 T01000000
                 51008 =
2018-01-20 08:53 METAR KTHV 201353Z AUTO 26008KT 10SM CLR 08/M02 A2996 RMK AO2 SLP149 T00781017 =
2018-01-20 07:53 METAR KTHV 201253Z AUTO 24005KT 10SM CLR 06/M04 A2995 RMK AO2 SLP147 T00561044 =
2018-01-20 06:53 METAR KTHV 201153Z AUTO 23005KT 10SM CLR 06/M05 A2994 RMK AO2 SLP142 T00561050
                 10061 21006 55004 =
2018-01-20 05:53 METAR KTHV 201053Z AUTO 22006KT 10SM CLR 06/M05 A2993 RMK AO2 SLP140 T00561050 =
2018-01-20 04:53 METAR KTHV 200953Z AUTO 23005KT 10SM CLR 04/M04 A2993 RMK AO2 SLP141 T00441044 =
2018-01-20 03:53 METAR KTHV 200853Z AUTO 00000KT 10SM CLR 00/M05 A2995 RMK AO2 SLP147 T00001050
                 56002 =
2018-01-20 01:53 METAR KTHV 200653Z AUTO 26010G15KT 10SM CLR 06/M06 A2995 RMK AO2 SLP148
                 T00561056 =
2018-01-20 00:53 METAR KTHV 200553Z AUTO VRB06KT 10SM CLR 05/M06 A2996 RMK AO2 SLP149 T00501056
                 10061 20044 58014 =
2018-01-19 23:53 METAR KTHV 200453Z AUTO 25004KT 10SM CLR 05/M05 A2998 RMK AO2 SLP157 T00501050
                 400671117 =
2018-01-19 22:53 METAR KTHV 200353Z AUTO 24006KT 10SM CLR 05/M05 A2999 RMK AO2 SLP162 T00501050 =
2018-01-19 21:53 METAR KTHV 200253Z AUTO 27004KT 10SM CLR 06/M06 A3000 RMK AO2 SLP163 T00561056
                 58003 =
2018-01-19 20:53 METAR KTHV 200153Z AUTO 25005KT 10SM CLR 05/M06 A3001 RMK AO2 SLP167 T00501061 =
2018-01-19 19:53 METAR KTHV 200053Z AUTO 23004KT 10SM CLR 06/M07 A3001 RMK AO2 SLP170 T00561072 =
2018-01-19 18:53 METAR KTHV 192353Z AUTO 23005KT 10SM CLR 06/M07 A3001 RMK AO2 SLP169 T00611067
                 10067 20044 53001 =
2018-01-19 17:53 METAR KTHV 192253Z AUTO 23007KT 10SM CLR 06/M07 A3000 RMK AO2 SLP168 T00611072 =
2018-01-19 16:53 METAR KTHV 192153Z AUTO 24006KT 10SM CLR 06/M07 A3000 RMK AO2 SLP166 T00611067 =
2018-01-19 15:53 METAR KTHV 192053Z AUTO 23006KT 10SM CLR 07/M07 A3000 RMK AO2 SLP167 T00671067
                 56010 =
2018-01-19 14:53 METAR KTHV 191953Z AUTO 24007KT 10SM CLR 07/M06 A3001 RMK AO2 SLP168 T00671061 =
2018-01-19 13:53 METAR KTHV 191853Z AUTO 24008KT 10SM CLR 06/M07 A3002 RMK AO2 SLP174 T00561067 =
2018-01-19 12:53 METAR KTHV 191753Z AUTO 25005KT 10SM CLR 04/M07 A3003 RMK AO2 SLP178 T00441072
                 10044 21106 =
2018-01-19 11:53 METAR KTHV 191653Z AUTO 26003KT 10SM CLR 03/M08 A3006 RMK AO2 SLP189 T00281078 =
2018-01-19 10:53 METAR KTHV 191553Z AUTO 26003KT 10SM 02/M08 A3009 RMK AO2 SLP200 T00221083 $ =

Support USWX by starting your Amazon purchase here.